createdAt,value
2023-05-02T00:00:10.193Z,5.52
2023-05-02T00:00:32.283Z,5.51
2023-05-02T00:00:54.988Z,5.50
2023-05-02T00:01:16.872Z,5.49
2023-05-02T00:01:38.830Z,5.48
2023-05-02T00:02:00.803Z,5.47
2023-05-02T00:02:22.716Z,5.46
2023-05-02T00:02:44.800Z,5.45
2023-05-02T00:03:07.754Z,5.44
2023-05-02T00:03:30.200Z,5.43
2023-05-02T00:03:52.264Z,5.42
2023-05-02T00:04:14.266Z,5.41
2023-05-02T00:04:36.332Z,5.39
2023-05-02T00:04:58.254Z,5.38
2023-05-02T00:05:20.293Z,5.37
2023-05-02T00:05:42.315Z,5.36
2023-05-02T00:06:04.190Z,5.35
2023-05-02T00:06:26.049Z,5.33
2023-05-02T00:06:47.965Z,5.32
2023-05-02T00:07:09.938Z,5.31
2023-05-02T00:07:31.714Z,5.30
2023-05-02T00:07:53.498Z,5.29
2023-05-02T00:08:16.511Z,5.28
2023-05-02T00:08:38.295Z,5.27
2023-05-02T00:09:00.195Z,5.26
2023-05-02T00:09:21.909Z,5.25
2023-05-02T00:09:43.761Z,5.24
2023-05-02T00:10:06.276Z,5.23
2023-05-02T00:10:28.145Z,5.22
2023-05-02T00:10:49.926Z,5.22
2023-05-02T00:11:11.920Z,5.21
2023-05-02T00:11:33.797Z,5.22
2023-05-02T00:11:55.582Z,5.22
2023-05-02T00:12:17.284Z,5.23
2023-05-02T00:12:39.166Z,5.23
2023-05-02T00:13:00.934Z,5.24
2023-05-02T00:13:23.937Z,5.26
2023-05-02T00:13:45.850Z,5.27
2023-05-02T00:14:09.620Z,5.27
2023-05-02T00:14:33.278Z,5.29
2023-05-02T00:14:57.531Z,5.30
2023-05-02T00:15:21.974Z,5.30
2023-05-02T00:15:43.753Z,5.31
2023-05-02T00:16:05.851Z,5.32
2023-05-02T00:16:27.629Z,5.32
2023-05-02T00:16:49.572Z,5.32
2023-05-02T00:17:17.510Z,5.31
2023-05-02T00:17:42.444Z,5.30
2023-05-02T00:18:04.293Z,5.30
2023-05-02T00:18:26.065Z,5.29
2023-05-02T00:18:49.562Z,5.28
2023-05-02T00:19:11.371Z,5.27
2023-05-02T00:19:33.128Z,5.26
2023-05-02T00:19:55.554Z,5.26
2023-05-02T00:20:17.340Z,5.24
2023-05-02T00:20:40.248Z,5.23
2023-05-02T00:21:02.029Z,5.22
2023-05-02T00:21:23.855Z,5.21
2023-05-02T00:21:48.082Z,5.21
2023-05-02T00:22:09.801Z,5.20
2023-05-02T00:22:32.354Z,5.19
2023-05-02T00:22:55.869Z,5.18
2023-05-02T00:23:17.657Z,5.17
2023-05-02T00:23:39.392Z,5.17
2023-05-02T00:24:01.425Z,5.16
2023-05-02T00:24:23.171Z,5.15
2023-05-02T00:24:44.992Z,5.15
2023-05-02T00:25:07.091Z,5.14
2023-05-02T00:25:28.867Z,5.13
2023-05-02T00:25:51.080Z,5.11
2023-05-02T00:26:13.052Z,5.10
2023-05-02T00:26:35.961Z,5.10
2023-05-02T00:26:57.746Z,5.09
2023-05-02T00:27:19.454Z,5.07
2023-05-02T00:27:41.214Z,5.07
2023-05-02T00:28:02.995Z,5.05
2023-05-02T00:28:26.548Z,5.05
2023-05-02T00:28:48.302Z,5.03
2023-05-02T00:29:09.998Z,5.03
2023-05-02T00:29:31.775Z,5.02
2023-05-02T00:29:53.867Z,5.02
2023-05-02T00:30:15.847Z,5.03
2023-05-02T00:30:42.263Z,5.04
2023-05-02T00:31:04.899Z,5.04
2023-05-02T00:31:26.885Z,5.05
2023-05-02T00:31:48.815Z,5.07
2023-05-02T00:32:10.810Z,5.07
2023-05-02T00:32:32.548Z,5.08
2023-05-02T00:32:55.027Z,5.09
2023-05-02T00:33:16.880Z,5.09
2023-05-02T00:33:38.615Z,5.10
2023-05-02T00:34:00.447Z,5.10
2023-05-02T00:34:22.347Z,5.10
2023-05-02T00:34:44.325Z,5.10
2023-05-02T00:35:06.539Z,5.10
2023-05-02T00:35:28.914Z,5.09
2023-05-02T00:35:52.538Z,5.08
2023-05-02T00:36:17.812Z,5.07
2023-05-02T00:36:39.597Z,5.05
2023-05-02T00:37:01.373Z,5.02
2023-05-02T00:37:25.954Z,5.00
2023-05-02T00:37:47.811Z,4.99
2023-05-02T00:38:09.560Z,4.97
2023-05-02T00:38:31.684Z,4.96
2023-05-02T00:38:53.468Z,4.91
2023-05-02T00:39:15.344Z,4.93
2023-05-02T00:39:37.239Z,4.92
2023-05-02T00:39:59.318Z,4.90
2023-05-02T00:40:21.723Z,4.89
2023-05-02T00:40:45.255Z,4.87
2023-05-02T00:41:07.146Z,4.85
2023-05-02T00:41:29.146Z,4.83
2023-05-02T00:41:59.820Z,4.82
2023-05-02T00:42:21.573Z,4.79
2023-05-02T00:42:43.270Z,4.78
2023-05-02T00:43:04.980Z,4.78
2023-05-02T00:43:26.841Z,4.77
2023-05-02T00:43:48.837Z,4.78
2023-05-02T00:44:10.622Z,4.78
2023-05-02T00:44:32.808Z,4.78
2023-05-02T00:44:54.839Z,4.79
2023-05-02T00:45:16.787Z,4.80
2023-05-02T00:45:40.748Z,4.81
2023-05-02T00:46:02.609Z,4.81
2023-05-02T00:46:24.964Z,4.82
2023-05-02T00:46:47.334Z,4.82
2023-05-02T00:47:09.290Z,4.82
2023-05-02T00:47:31.341Z,4.81
2023-05-02T00:47:53.328Z,4.80
2023-05-02T00:48:15.543Z,4.80
2023-05-02T00:48:37.452Z,4.79
2023-05-02T00:48:59.244Z,4.79
2023-05-02T00:49:21.131Z,4.78
2023-05-02T00:49:43.109Z,4.77
2023-05-02T00:50:05.734Z,4.76
2023-05-02T00:50:28.418Z,4.75
2023-05-02T00:50:50.114Z,4.73
2023-05-02T00:51:13.426Z,4.72
2023-05-02T00:51:35.203Z,4.70
2023-05-02T00:51:56.996Z,4.69
2023-05-02T00:52:18.875Z,4.67
2023-05-02T00:52:40.656Z,4.66
2023-05-02T00:53:03.978Z,4.65
2023-05-02T00:53:26.056Z,4.64
2023-05-02T00:53:48.167Z,4.63
2023-05-02T00:54:11.175Z,4.62
2023-05-02T00:54:32.880Z,4.61
2023-05-02T00:54:54.748Z,4.59
2023-05-02T00:55:17.042Z,4.59
2023-05-02T00:55:38.819Z,4.58
2023-05-02T00:56:02.344Z,4.57
2023-05-02T00:56:24.131Z,4.56
2023-05-02T00:56:46.627Z,4.56
2023-05-02T00:57:08.416Z,4.55
2023-05-02T00:57:30.403Z,4.55
2023-05-02T00:57:52.797Z,4.54
2023-05-02T00:58:15.202Z,4.53
2023-05-02T00:58:38.009Z,4.53
2023-05-02T00:59:00.149Z,4.52
2023-05-02T00:59:21.995Z,4.51
2023-05-02T00:59:44.588Z,4.50
2023-05-02T01:00:06.997Z,4.50
2023-05-02T01:00:37.575Z,4.50
2023-05-02T01:01:02.219Z,4.49
2023-05-02T01:01:47.694Z,4.50
2023-05-02T01:02:12.012Z,4.52
2023-05-02T01:02:44.176Z,4.55
2023-05-02T01:03:10.797Z,4.57
2023-05-02T01:03:37.325Z,4.60
2023-05-02T01:04:08.485Z,4.62
2023-05-02T01:04:32.289Z,4.63
2023-05-02T01:05:00.007Z,4.65
2023-05-02T01:05:23.023Z,4.66
2023-05-02T01:05:46.961Z,4.68
2023-05-02T01:06:15.286Z,4.69
2023-05-02T01:06:37.790Z,4.70
2023-05-02T01:07:19.294Z,4.71
2023-05-02T01:07:44.058Z,4.70
2023-05-02T01:08:05.935Z,4.70
2023-05-02T01:08:36.151Z,4.69
2023-05-02T01:09:07.094Z,4.69
2023-05-02T01:09:39.412Z,4.68
2023-05-02T01:10:10.017Z,4.68
2023-05-02T01:10:50.599Z,4.67
2023-05-02T01:11:15.989Z,4.65
2023-05-02T01:11:50.123Z,4.65
2023-05-02T01:12:30.857Z,4.65
2023-05-02T01:13:07.972Z,4.64
2023-05-02T01:13:32.320Z,4.63
2023-05-02T01:13:54.079Z,4.62
2023-05-02T01:14:16.089Z,4.62
2023-05-02T01:14:42.042Z,4.61
2023-05-02T01:15:06.236Z,4.60
2023-05-02T01:15:31.333Z,4.60
2023-05-02T01:15:53.498Z,4.59
2023-05-02T01:16:15.831Z,4.58
2023-05-02T01:16:42.331Z,4.58
2023-05-02T01:17:05.837Z,4.58
2023-05-02T01:17:28.840Z,4.57
2023-05-02T01:17:51.179Z,4.56
2023-05-02T01:18:13.738Z,4.56
2023-05-02T01:18:36.150Z,4.56
2023-05-02T01:18:58.136Z,4.55
2023-05-02T01:19:22.275Z,4.54
2023-05-02T01:19:45.288Z,4.54
2023-05-02T01:20:08.500Z,4.53
2023-05-02T01:20:30.389Z,4.52
2023-05-02T01:20:53.402Z,4.52
2023-05-02T01:21:15.601Z,4.52
2023-05-02T01:21:37.628Z,4.53
2023-05-02T01:21:59.338Z,4.54
2023-05-02T01:22:21.089Z,4.55
2023-05-02T01:22:43.448Z,4.56
2023-05-02T01:23:07.517Z,4.58
2023-05-02T01:23:48.115Z,4.60
2023-05-02T01:24:15.714Z,4.63
2023-05-02T01:24:57.748Z,4.65
2023-05-02T01:25:33.745Z,4.68
2023-05-02T01:26:15.766Z,4.70
2023-05-02T01:26:41.277Z,4.71
2023-05-02T01:27:08.804Z,4.71
2023-05-02T01:27:49.351Z,4.71
2023-05-02T01:28:30.160Z,4.70
2023-05-02T01:28:53.492Z,4.69
2023-05-02T01:29:15.231Z,4.69
2023-05-02T01:29:37.349Z,4.67
2023-05-02T01:29:59.957Z,4.67
2023-05-02T01:30:21.820Z,4.66
2023-05-02T01:30:43.841Z,4.65
2023-05-02T01:31:05.773Z,4.65
2023-05-02T01:31:31.719Z,4.64
2023-05-02T01:31:53.564Z,4.63
2023-05-02T01:32:15.591Z,4.62
2023-05-02T01:32:37.671Z,4.61
2023-05-02T01:32:59.857Z,4.61
2023-05-02T01:33:24.572Z,4.59
2023-05-02T01:33:46.288Z,4.59
2023-05-02T01:34:11.047Z,4.59
2023-05-02T01:34:33.396Z,4.58
2023-05-02T01:34:55.216Z,4.57
2023-05-02T01:35:17.436Z,4.57
2023-05-02T01:35:39.234Z,4.57
2023-05-02T01:36:01.086Z,4.57
2023-05-02T01:36:23.587Z,4.57
2023-05-02T01:36:46.906Z,4.58
2023-05-02T01:37:10.447Z,4.59
2023-05-02T01:37:33.469Z,4.61
2023-05-02T01:37:55.949Z,4.62
2023-05-02T01:38:18.669Z,4.63
2023-05-02T01:38:40.844Z,4.64
2023-05-02T01:39:03.164Z,4.65
2023-05-02T01:39:25.137Z,4.66
2023-05-02T01:39:47.226Z,4.68
2023-05-02T01:40:09.307Z,4.69
2023-05-02T01:40:34.235Z,4.70
2023-05-02T01:40:56.051Z,4.70
2023-05-02T01:41:18.547Z,4.70
2023-05-02T01:41:40.338Z,4.69
2023-05-02T01:42:02.740Z,4.69
2023-05-02T01:42:24.515Z,4.68
2023-05-02T01:42:47.329Z,4.67
2023-05-02T01:43:09.107Z,4.66
2023-05-02T01:43:31.908Z,4.64
2023-05-02T01:43:54.622Z,4.64
2023-05-02T01:44:17.271Z,4.63
2023-05-02T01:44:39.936Z,4.62
2023-05-02T01:45:01.822Z,4.61
2023-05-02T01:45:23.597Z,4.60
2023-05-02T01:45:45.788Z,4.59
2023-05-02T01:46:07.695Z,4.58
2023-05-02T01:46:36.870Z,4.56
2023-05-02T01:46:59.066Z,4.56
2023-05-02T01:47:21.753Z,4.54
2023-05-02T01:47:43.962Z,4.53
2023-05-02T01:48:06.676Z,4.51
2023-05-02T01:48:29.027Z,4.50
2023-05-02T01:48:50.927Z,4.48
2023-05-02T01:49:12.803Z,4.47
2023-05-02T01:49:35.402Z,4.46
2023-05-02T01:49:58.808Z,4.44
2023-05-02T01:50:23.091Z,4.43
2023-05-02T01:50:45.795Z,4.42
2023-05-02T01:51:08.165Z,4.40
2023-05-02T01:51:32.012Z,4.38
2023-05-02T01:51:53.784Z,4.36
2023-05-02T01:52:15.576Z,4.35
2023-05-02T01:52:38.696Z,4.34
2023-05-02T01:53:01.486Z,4.32
2023-05-02T01:53:24.089Z,4.31
2023-05-02T01:53:46.381Z,4.30
2023-05-02T01:54:08.579Z,4.29
2023-05-02T01:54:30.669Z,4.28
2023-05-02T01:54:52.374Z,4.27
2023-05-02T01:55:15.056Z,4.26
2023-05-02T01:55:36.943Z,4.26
2023-05-02T01:55:58.776Z,4.25
2023-05-02T01:56:20.611Z,4.26
2023-05-02T01:56:43.842Z,4.26
2023-05-02T01:57:06.461Z,4.27
2023-05-02T01:57:28.324Z,4.27
2023-05-02T01:57:50.722Z,4.29
2023-05-02T01:58:12.435Z,4.29
2023-05-02T01:58:34.593Z,4.31
2023-05-02T01:58:56.381Z,4.31
2023-05-02T01:59:18.879Z,4.32
2023-05-02T01:59:40.886Z,4.33
2023-05-02T02:00:05.004Z,4.34
2023-05-02T02:00:34.932Z,4.34
2023-05-02T02:00:57.739Z,4.34
2023-05-02T02:01:19.819Z,4.33
2023-05-02T02:01:43.773Z,4.33
2023-05-02T02:02:06.203Z,4.32
2023-05-02T02:02:27.935Z,4.31
2023-05-02T02:02:50.138Z,4.30
2023-05-02T02:03:12.083Z,4.30
2023-05-02T02:03:34.000Z,4.29
2023-05-02T02:03:56.114Z,4.28
2023-05-02T02:04:19.638Z,4.26
2023-05-02T02:04:41.778Z,4.25
2023-05-02T02:05:05.586Z,4.23
2023-05-02T02:05:27.378Z,4.23
2023-05-02T02:05:49.121Z,4.21
2023-05-02T02:06:11.009Z,4.20
2023-05-02T02:06:33.271Z,4.19
2023-05-02T02:07:01.461Z,4.18
2023-05-02T02:07:23.239Z,4.17
2023-05-02T02:07:45.028Z,4.16
2023-05-02T02:08:06.836Z,4.15
2023-05-02T02:08:28.605Z,4.14
2023-05-02T02:08:50.704Z,4.13
2023-05-02T02:09:12.480Z,4.12
2023-05-02T02:09:34.498Z,4.11
2023-05-02T02:09:57.542Z,4.10
2023-05-02T02:10:19.678Z,4.10
2023-05-02T02:10:41.666Z,4.09
2023-05-02T02:11:04.779Z,4.09
2023-05-02T02:11:35.048Z,4.08
2023-05-02T02:12:06.344Z,4.08
2023-05-02T02:12:32.324Z,4.08
2023-05-02T02:12:54.846Z,4.09
2023-05-02T02:13:34.819Z,4.10
2023-05-02T02:14:01.982Z,4.12
2023-05-02T02:14:25.854Z,4.14
2023-05-02T02:14:49.167Z,4.17
2023-05-02T02:15:11.263Z,4.18
2023-05-02T02:15:34.842Z,4.19
2023-05-02T02:15:58.200Z,4.21
2023-05-02T02:16:21.875Z,4.22
2023-05-02T02:16:43.729Z,4.23
2023-05-02T02:17:07.182Z,4.23
2023-05-02T02:17:37.150Z,4.23
2023-05-02T02:17:59.634Z,4.23
2023-05-02T02:18:22.415Z,4.22
2023-05-02T02:18:44.102Z,4.22
2023-05-02T02:19:06.594Z,4.20
2023-05-02T02:19:28.376Z,4.20
2023-05-02T02:19:51.293Z,4.19
2023-05-02T02:20:13.167Z,4.18
2023-05-02T02:20:34.954Z,4.17
2023-05-02T02:20:57.558Z,4.16
2023-05-02T02:21:19.853Z,4.15
2023-05-02T02:21:44.600Z,4.14
2023-05-02T02:22:06.594Z,4.12
2023-05-02T02:22:28.425Z,4.12
2023-05-02T02:22:50.265Z,4.10
2023-05-02T02:23:12.075Z,4.09
2023-05-02T02:23:33.867Z,4.09
2023-05-02T02:23:56.345Z,4.08
2023-05-02T02:24:18.937Z,4.07
2023-05-02T02:24:40.737Z,4.07
2023-05-02T02:25:02.505Z,4.06
2023-05-02T02:25:24.490Z,4.05
2023-05-02T02:25:46.284Z,4.04
2023-05-02T02:26:10.210Z,4.03
2023-05-02T02:26:32.002Z,4.02
2023-05-02T02:26:53.792Z,4.01
2023-05-02T02:27:15.563Z,4.00
2023-05-02T02:27:37.879Z,3.99
2023-05-02T02:27:59.650Z,3.99
2023-05-02T02:28:22.553Z,3.98
2023-05-02T02:28:44.344Z,3.99
2023-05-02T02:29:06.126Z,4.00
2023-05-02T02:29:28.120Z,4.00
2023-05-02T02:29:49.896Z,4.01
2023-05-02T02:30:11.795Z,4.03
2023-05-02T02:30:33.519Z,4.04
2023-05-02T02:30:55.888Z,4.05
2023-05-02T02:31:17.778Z,4.05
2023-05-02T02:31:40.002Z,4.07
2023-05-02T02:32:01.829Z,4.08
2023-05-02T02:32:24.796Z,4.08
2023-05-02T02:32:46.667Z,4.10
2023-05-02T02:33:09.066Z,4.10
2023-05-02T02:33:31.322Z,4.09
2023-05-02T02:33:53.513Z,4.09
2023-05-02T02:34:15.203Z,4.09
2023-05-02T02:34:36.983Z,4.08
2023-05-02T02:34:59.703Z,4.07
2023-05-02T02:35:21.465Z,4.07
2023-05-02T02:35:43.701Z,4.06
2023-05-02T02:36:07.904Z,4.05
2023-05-02T02:36:49.882Z,4.05
2023-05-02T02:37:14.993Z,4.03
2023-05-02T02:37:41.390Z,4.02
2023-05-02T02:38:09.526Z,4.01
2023-05-02T02:38:34.369Z,4.00
2023-05-02T02:39:01.577Z,3.99
2023-05-02T02:39:35.368Z,3.98
2023-05-02T02:40:32.591Z,3.97
2023-05-02T02:41:02.764Z,3.95
2023-05-02T02:41:28.025Z,3.93
2023-05-02T02:41:59.317Z,3.92
2023-05-02T02:42:39.928Z,3.91
2023-05-02T02:43:16.638Z,3.91
2023-05-02T02:43:56.831Z,3.92
2023-05-02T02:44:23.218Z,3.94
2023-05-02T02:44:51.242Z,3.96
2023-05-02T02:45:13.033Z,3.97
2023-05-02T02:45:41.154Z,3.99
2023-05-02T02:46:06.676Z,4.00
2023-05-02T02:46:31.884Z,4.02
2023-05-02T02:46:53.786Z,4.03
2023-05-02T02:47:19.036Z,4.04
2023-05-02T02:47:53.213Z,4.04
2023-05-02T02:48:35.170Z,4.04
2023-05-02T02:49:15.932Z,4.03
2023-05-02T02:49:56.566Z,4.02
2023-05-02T02:50:31.723Z,4.01
2023-05-02T02:51:15.024Z,4.00
2023-05-02T02:51:47.293Z,3.99
2023-05-02T02:52:17.889Z,3.98
2023-05-02T02:52:42.420Z,3.97
2023-05-02T02:53:08.904Z,3.97
2023-05-02T02:53:43.273Z,3.96
2023-05-02T02:54:15.397Z,3.95
2023-05-02T02:54:44.091Z,3.95
2023-05-02T02:55:41.719Z,3.94
2023-05-02T02:56:05.446Z,3.93
2023-05-02T02:56:28.755Z,3.92
2023-05-02T02:56:51.256Z,3.92
2023-05-02T02:57:33.804Z,3.92
2023-05-02T02:57:57.946Z,3.92
2023-05-02T02:58:31.691Z,3.91
2023-05-02T02:59:06.873Z,3.91
2023-05-02T02:59:29.369Z,3.92
2023-05-02T02:59:59.482Z,3.92
2023-05-02T03:00:22.555Z,3.94
2023-05-02T03:00:44.436Z,3.95
2023-05-02T03:01:06.763Z,3.96
2023-05-02T03:01:30.456Z,3.98
2023-05-02T03:01:57.724Z,3.99
2023-05-02T03:02:19.655Z,4.02
2023-05-02T03:02:42.709Z,4.03
2023-05-02T03:03:04.580Z,4.05
2023-05-02T03:03:29.302Z,4.07
2023-05-02T03:03:51.613Z,4.08
2023-05-02T03:04:14.850Z,4.09
2023-05-02T03:04:38.452Z,4.10
2023-05-02T03:05:00.429Z,4.10
2023-05-02T03:05:25.084Z,4.11
2023-05-02T03:05:46.863Z,4.11
2023-05-02T03:06:09.111Z,4.12
2023-05-02T03:06:31.235Z,4.12
2023-05-02T03:06:53.641Z,4.12
2023-05-02T03:07:15.536Z,4.12
2023-05-02T03:07:37.326Z,4.12
2023-05-02T03:07:59.618Z,4.13
2023-05-02T03:08:21.344Z,4.14
2023-05-02T03:08:43.596Z,4.14
2023-05-02T03:09:14.791Z,4.15
2023-05-02T03:09:46.308Z,4.15
2023-05-02T03:10:11.996Z,4.16
2023-05-02T03:10:34.097Z,4.17
2023-05-02T03:10:55.948Z,4.18
2023-05-02T03:11:17.825Z,4.19
2023-05-02T03:11:39.620Z,4.19
2023-05-02T03:12:01.539Z,4.20
2023-05-02T03:12:23.991Z,4.21
2023-05-02T03:12:45.884Z,4.23
2023-05-02T03:13:07.835Z,4.24
2023-05-02T03:13:29.657Z,4.27
2023-05-02T03:13:52.901Z,4.29
2023-05-02T03:14:14.860Z,4.31
2023-05-02T03:14:37.058Z,4.35
2023-05-02T03:15:07.428Z,4.38
2023-05-02T03:15:48.054Z,4.42
2023-05-02T03:16:48.168Z,4.47
2023-05-02T03:17:09.998Z,4.55
2023-05-02T03:17:31.965Z,4.58
2023-05-02T03:17:53.771Z,4.61
2023-05-02T03:18:16.670Z,4.62
2023-05-02T03:18:38.627Z,4.64
2023-05-02T03:19:00.414Z,4.64
2023-05-02T03:19:22.398Z,4.66
2023-05-02T03:19:44.288Z,4.67
2023-05-02T03:20:07.812Z,4.68
2023-05-02T03:20:29.531Z,4.69
2023-05-02T03:20:51.614Z,4.70
2023-05-02T03:21:13.571Z,4.71
2023-05-02T03:21:36.438Z,4.72
2023-05-02T03:22:02.199Z,4.73
2023-05-02T03:22:24.048Z,4.74
2023-05-02T03:22:46.126Z,4.74
2023-05-02T03:23:08.116Z,4.75
2023-05-02T03:23:29.835Z,4.75
2023-05-02T03:23:51.596Z,4.76
2023-05-02T03:24:13.594Z,4.77
2023-05-02T03:24:35.358Z,4.78
2023-05-02T03:24:57.657Z,4.79
2023-05-02T03:25:19.339Z,4.80
2023-05-02T03:25:41.942Z,4.81
2023-05-02T03:26:04.546Z,4.83
2023-05-02T03:26:27.146Z,4.84
2023-05-02T03:26:49.237Z,4.87
2023-05-02T03:27:11.329Z,4.90
2023-05-02T03:27:34.953Z,4.94
2023-05-02T03:27:59.707Z,4.97
2023-05-02T03:28:21.501Z,5.00
2023-05-02T03:28:47.074Z,5.04
2023-05-02T03:29:09.473Z,5.08
2023-05-02T03:29:32.987Z,5.11
2023-05-02T03:29:54.871Z,5.14
2023-05-02T03:30:16.664Z,5.17
2023-05-02T03:30:40.897Z,5.20
2023-05-02T03:31:03.914Z,5.22
2023-05-02T03:31:26.813Z,5.23
2023-05-02T03:31:49.389Z,5.25
2023-05-02T03:32:11.316Z,5.27
2023-05-02T03:32:33.926Z,5.28
2023-05-02T03:32:55.729Z,5.29
2023-05-02T03:33:17.617Z,5.30
2023-05-02T03:33:39.668Z,5.31
2023-05-02T03:34:01.451Z,5.32
2023-05-02T03:34:23.745Z,5.33
2023-05-02T03:34:45.738Z,5.35
2023-05-02T03:35:07.732Z,5.36
2023-05-02T03:35:31.352Z,5.36
2023-05-02T03:35:53.620Z,5.37
2023-05-02T03:36:16.404Z,5.38
2023-05-02T03:36:38.443Z,5.39
2023-05-02T03:37:00.329Z,5.40
2023-05-02T03:37:22.123Z,5.41
2023-05-02T03:37:44.210Z,5.42
2023-05-02T03:38:06.420Z,5.43
2023-05-02T03:38:29.542Z,5.45
2023-05-02T03:38:51.814Z,5.47
2023-05-02T03:39:13.697Z,5.49
2023-05-02T03:39:35.892Z,5.52
2023-05-02T03:39:57.967Z,5.56
2023-05-02T03:40:22.137Z,5.58
2023-05-02T03:40:44.417Z,5.61
2023-05-02T03:41:06.605Z,5.64
2023-05-02T03:41:28.842Z,5.66
2023-05-02T03:41:55.184Z,5.71
2023-05-02T03:42:16.967Z,5.73
2023-05-02T03:42:41.329Z,5.75
2023-05-02T03:43:06.675Z,5.77
2023-05-02T03:43:28.667Z,5.78
2023-05-02T03:43:51.275Z,5.79
2023-05-02T03:44:14.384Z,5.81
2023-05-02T03:44:36.691Z,5.81
2023-05-02T03:44:58.465Z,5.83
2023-05-02T03:45:21.138Z,5.83
2023-05-02T03:45:43.467Z,5.84
2023-05-02T03:46:08.025Z,5.85
2023-05-02T03:46:29.971Z,5.86
2023-05-02T03:46:52.065Z,5.86
2023-05-02T03:47:14.087Z,5.86
2023-05-02T03:47:36.231Z,5.88
2023-05-02T03:47:58.198Z,5.88
2023-05-02T03:48:20.361Z,5.89
2023-05-02T03:48:42.132Z,5.90
2023-05-02T03:49:03.919Z,5.90
2023-05-02T03:49:27.064Z,5.92
2023-05-02T03:49:49.518Z,5.93
2023-05-02T03:50:11.283Z,5.93
2023-05-02T03:50:33.513Z,5.95
2023-05-02T03:50:55.401Z,5.96
2023-05-02T03:51:17.590Z,5.97
2023-05-02T03:51:39.482Z,6.00
2023-05-02T03:52:01.277Z,6.02
2023-05-02T03:52:23.669Z,6.04
2023-05-02T03:52:45.657Z,6.07
2023-05-02T03:53:08.573Z,6.09
2023-05-02T03:53:33.880Z,6.12
2023-05-02T03:53:55.715Z,6.15
2023-05-02T03:54:18.212Z,6.18
2023-05-02T03:54:40.002Z,6.20
2023-05-02T03:55:02.006Z,6.22
2023-05-02T03:55:24.186Z,6.23
2023-05-02T03:55:46.676Z,6.25
2023-05-02T03:56:11.428Z,6.26
2023-05-02T03:56:41.334Z,6.27
2023-05-02T03:57:14.532Z,6.27
2023-05-02T03:57:36.523Z,6.28
2023-05-02T03:57:58.310Z,6.28
2023-05-02T03:58:20.136Z,6.29
2023-05-02T03:58:42.185Z,6.30
2023-05-02T03:59:04.280Z,6.29
2023-05-02T03:59:26.164Z,6.29
2023-05-02T03:59:48.365Z,6.30
2023-05-02T04:00:13.553Z,6.31
2023-05-02T04:00:38.989Z,6.30
2023-05-02T04:01:01.178Z,6.31
2023-05-02T04:01:23.695Z,6.30
2023-05-02T04:01:50.265Z,6.31
2023-05-02T04:02:13.335Z,6.30
2023-05-02T04:02:38.942Z,6.31
2023-05-02T04:03:04.048Z,6.31
2023-05-02T04:03:29.388Z,6.30
2023-05-02T04:03:52.382Z,6.31
2023-05-02T04:04:17.565Z,6.32
2023-05-02T04:04:44.088Z,6.33
2023-05-02T04:05:08.733Z,6.34
2023-05-02T04:05:31.073Z,6.36
2023-05-02T04:05:53.070Z,6.38
2023-05-02T04:06:15.110Z,6.40
2023-05-02T04:06:38.961Z,6.43
2023-05-02T04:07:02.302Z,6.44
2023-05-02T04:07:26.044Z,6.47
2023-05-02T04:07:57.156Z,6.50
2023-05-02T04:08:19.243Z,6.52
2023-05-02T04:08:41.536Z,6.53
2023-05-02T04:09:03.426Z,6.55
2023-05-02T04:09:31.626Z,6.57
2023-05-02T04:10:00.093Z,6.58
2023-05-02T04:10:22.258Z,6.59
2023-05-02T04:10:51.198Z,6.59
2023-05-02T04:11:13.494Z,6.61
2023-05-02T04:11:35.586Z,6.61
2023-05-02T04:11:58.464Z,6.61
2023-05-02T04:12:20.583Z,6.61
2023-05-02T04:12:44.741Z,6.61
2023-05-02T04:13:06.818Z,6.62
2023-05-02T04:13:29.524Z,6.62
2023-05-02T04:13:53.369Z,6.63
2023-05-02T04:14:15.648Z,6.63
2023-05-02T04:14:38.655Z,6.64
2023-05-02T04:15:00.745Z,6.64
2023-05-02T04:15:24.350Z,6.65
2023-05-02T04:15:47.999Z,6.66
2023-05-02T04:16:13.011Z,6.66
2023-05-02T04:16:35.204Z,6.67
2023-05-02T04:16:57.060Z,6.68
2023-05-02T04:17:27.935Z,6.70
2023-05-02T04:17:49.929Z,6.72
2023-05-02T04:18:11.950Z,6.74
2023-05-02T04:18:33.773Z,6.76
2023-05-02T04:18:57.416Z,6.79
2023-05-02T04:19:19.668Z,6.81
2023-05-02T04:19:41.694Z,6.84
2023-05-02T04:20:05.750Z,6.85
2023-05-02T04:20:29.572Z,6.89
2023-05-02T04:20:51.447Z,6.92
2023-05-02T04:21:14.560Z,6.94
2023-05-02T04:21:37.392Z,6.96
2023-05-02T04:22:00.154Z,6.98
2023-05-02T04:22:21.900Z,6.99
2023-05-02T04:22:50.286Z,7.02
2023-05-02T04:23:12.282Z,7.03
2023-05-02T04:23:34.065Z,7.03
2023-05-02T04:23:56.972Z,7.05
2023-05-02T04:24:19.068Z,7.05
2023-05-02T04:24:40.849Z,7.05
2023-05-02T04:25:02.939Z,7.06
2023-05-02T04:25:25.541Z,7.06
2023-05-02T04:25:56.381Z,7.06
2023-05-02T04:26:24.473Z,7.07
2023-05-02T04:26:52.378Z,7.06
2023-05-02T04:27:15.442Z,7.07
2023-05-02T04:27:38.701Z,7.07
2023-05-02T04:28:02.739Z,7.07
2023-05-02T04:28:25.242Z,7.07
2023-05-02T04:28:47.386Z,7.08
2023-05-02T04:29:10.646Z,7.08
2023-05-02T04:29:33.012Z,7.08
2023-05-02T04:29:55.134Z,7.09
2023-05-02T04:30:17.432Z,7.11
2023-05-02T04:30:45.526Z,7.13
2023-05-02T04:31:07.693Z,7.15
2023-05-02T04:31:30.656Z,7.17
2023-05-02T04:31:52.751Z,7.19
2023-05-02T04:32:15.454Z,7.21
2023-05-02T04:32:38.196Z,7.23
2023-05-02T04:33:00.971Z,7.24
2023-05-02T04:33:26.624Z,7.26
2023-05-02T04:33:49.412Z,7.28
2023-05-02T04:34:14.144Z,7.30
2023-05-02T04:34:39.154Z,7.32
2023-05-02T04:35:01.038Z,7.33
2023-05-02T04:35:22.924Z,7.34
2023-05-02T04:35:45.391Z,7.35
2023-05-02T04:36:10.183Z,7.36
2023-05-02T04:36:32.890Z,7.37
2023-05-02T04:36:55.188Z,7.37
2023-05-02T04:37:18.713Z,7.38
2023-05-02T04:37:41.464Z,7.39
2023-05-02T04:38:03.559Z,7.40
2023-05-02T04:38:25.791Z,7.40
2023-05-02T04:38:47.574Z,7.41
2023-05-02T04:39:10.959Z,7.42
2023-05-02T04:39:35.403Z,7.43
2023-05-02T04:40:00.714Z,7.43
2023-05-02T04:40:25.150Z,7.44
2023-05-02T04:40:53.429Z,7.45
2023-05-02T04:41:21.723Z,7.45
2023-05-02T04:41:48.910Z,7.46
2023-05-02T04:42:10.900Z,7.47
2023-05-02T04:42:38.918Z,7.48
2023-05-02T04:43:07.862Z,7.50
2023-05-02T04:43:40.628Z,7.51
2023-05-02T04:44:02.788Z,7.53
2023-05-02T04:44:24.862Z,7.54
2023-05-02T04:44:48.606Z,7.56
2023-05-02T04:45:11.077Z,7.58
2023-05-02T04:45:32.887Z,7.60
2023-05-02T04:45:54.996Z,7.62
2023-05-02T04:46:21.657Z,7.66
2023-05-02T04:46:43.918Z,7.69
2023-05-02T04:47:05.858Z,7.72
2023-05-02T04:47:27.893Z,7.74
2023-05-02T04:47:49.913Z,7.76
2023-05-02T04:48:12.499Z,7.78
2023-05-02T04:48:34.294Z,7.80
2023-05-02T04:48:56.107Z,7.81
2023-05-02T04:49:18.015Z,7.82
2023-05-02T04:49:39.878Z,7.83
2023-05-02T04:50:02.884Z,7.84
2023-05-02T04:50:25.091Z,7.85
2023-05-02T04:50:47.392Z,7.85
2023-05-02T04:51:09.889Z,7.85
2023-05-02T04:51:32.181Z,7.86
2023-05-02T04:51:54.579Z,7.87
2023-05-02T04:52:17.421Z,7.87
2023-05-02T04:52:39.392Z,7.88
2023-05-02T04:53:01.669Z,7.89
2023-05-02T04:53:24.166Z,7.90
2023-05-02T04:53:46.473Z,7.91
2023-05-02T04:54:09.171Z,7.92
2023-05-02T04:54:32.497Z,7.92
2023-05-02T04:54:54.275Z,7.94
2023-05-02T04:55:16.061Z,7.94
2023-05-02T04:55:38.048Z,7.96
2023-05-02T04:56:00.699Z,7.98
2023-05-02T04:56:22.741Z,8.00
2023-05-02T04:56:44.629Z,8.01
2023-05-02T04:57:08.149Z,8.04
2023-05-02T04:57:32.184Z,8.06
2023-05-02T04:57:55.011Z,8.09
2023-05-02T04:58:17.096Z,8.11
2023-05-02T04:58:41.497Z,8.13
2023-05-02T04:59:04.740Z,8.15
2023-05-02T04:59:27.454Z,8.17
2023-05-02T04:59:49.337Z,8.18
2023-05-02T05:00:11.836Z,8.19
2023-05-02T05:00:33.950Z,8.20
2023-05-02T05:00:57.858Z,8.21
2023-05-02T05:01:19.768Z,8.21
2023-05-02T05:01:42.278Z,8.21
2023-05-02T05:02:05.387Z,8.22
2023-05-02T05:02:28.168Z,8.22
2023-05-02T05:02:52.373Z,8.22
2023-05-02T05:03:14.395Z,8.23
2023-05-02T05:03:36.777Z,8.23
2023-05-02T05:04:00.052Z,8.24
2023-05-02T05:04:22.268Z,8.23
2023-05-02T05:04:45.856Z,8.23
2023-05-02T05:05:08.039Z,8.24
2023-05-02T05:05:30.124Z,8.24
2023-05-02T05:05:52.093Z,8.23
2023-05-02T05:06:15.942Z,8.23
2023-05-02T05:06:38.302Z,8.24
2023-05-02T05:07:00.889Z,8.24
2023-05-02T05:07:23.947Z,8.24
2023-05-02T05:07:47.063Z,8.25
2023-05-02T05:08:10.277Z,8.26
2023-05-02T05:08:32.883Z,8.27
2023-05-02T05:08:55.488Z,8.28
2023-05-02T05:09:17.270Z,8.29
2023-05-02T05:09:39.053Z,8.30
2023-05-02T05:10:01.986Z,8.31
2023-05-02T05:10:28.349Z,8.33
2023-05-02T05:10:50.647Z,8.35
2023-05-02T05:11:12.838Z,8.37
2023-05-02T05:11:34.631Z,8.39
2023-05-02T05:11:56.588Z,8.42
2023-05-02T05:12:19.008Z,8.45
2023-05-02T05:12:41.409Z,8.48
2023-05-02T05:13:04.930Z,8.51
2023-05-02T05:13:28.672Z,8.54
2023-05-02T05:13:50.982Z,8.57
2023-05-02T05:14:13.147Z,8.58
2023-05-02T05:14:37.287Z,8.59
2023-05-02T05:14:59.281Z,8.60
2023-05-02T05:15:24.047Z,8.61
2023-05-02T05:15:50.026Z,8.61
2023-05-02T05:16:12.462Z,8.61
2023-05-02T05:16:34.980Z,8.60
2023-05-02T05:16:56.892Z,8.60